Time;durP1;ratioP1;P1;durP2;ratioP2;P2;SDS_P1;SDS_P2;PMS_P1;PMS_P2;Temp;Humidity;BMP_temperature;BMP_pressure;BME280_temperature;BME280_humidity;BME280_pressure;Samples;Min_cycle;Max_cycle;Signal;HPM_P1;HPM_P2
2021/03/21 00:01:26;;;;;;;1.00;1.00;;;23.10;26.80;;;;;;5071177;28;20665;-48
2021/03/21 00:03:53;;;;;;;1.00;1.00;;;23.10;26.80;;;;;;5066053;28;20220;-49
2021/03/21 00:06:19;;;;;;;1.30;1.20;;;23.10;26.80;;;;;;5070701;28;20201;-54
2021/03/21 00:08:45;;;;;;;2.55;1.20;;;23.10;26.60;;;;;;5069717;28;20205;-45
2021/03/21 00:11:11;;;;;;;1.93;1.10;;;23.00;26.50;;;;;;5077530;28;20201;-47
2021/03/21 00:13:37;;;;;;;1.33;1.20;;;23.00;26.60;;;;;;5071401;28;20286;-50
2021/03/21 00:16:03;;;;;;;1.07;1.00;;;23.00;26.70;;;;;;5073199;28;20668;-47
2021/03/21 00:18:29;;;;;;;1.95;1.30;;;23.10;26.80;;;;;;5070753;28;20208;-49
2021/03/21 00:20:55;;;;;;;2.13;1.10;;;23.00;26.80;;;;;;5072453;28;20208;-50
2021/03/21 00:23:21;;;;;;;1.17;1.10;;;23.00;26.80;;;;;;5072527;28;20217;-46
2021/03/21 00:25:47;;;;;;;1.10;1.00;;;23.00;26.90;;;;;;5070704;28;20923;-44
2021/03/21 00:28:13;;;;;;;1.60;1.20;;;23.00;26.90;;;;;;5076457;28;20201;-56
2021/03/21 00:30:39;;;;;;;1.30;1.20;;;23.00;26.90;;;;;;5072169;28;20209;-55
2021/03/21 00:33:05;;;;;;;2.15;1.00;;;23.00;26.90;;;;;;5072776;28;20247;-48
2021/03/21 00:35:31;;;;;;;1.08;1.00;;;23.00;26.90;;;;;;5072308;28;20201;-52
2021/03/21 00:37:57;;;;;;;1.20;1.10;;;23.00;26.80;;;;;;5071080;28;20197;-49
2021/03/21 00:40:23;;;;;;;1.03;1.00;;;23.10;26.90;;;;;;5072347;28;20214;-52
2021/03/21 00:42:49;;;;;;;1.20;1.10;;;23.00;26.80;;;;;;5071944;28;20237;-51
2021/03/21 00:45:15;;;;;;;1.13;1.02;;;23.00;26.90;;;;;;5071923;28;20201;-47
2021/03/21 00:47:41;;;;;;;1.63;1.20;;;23.00;26.90;;;;;;5066362;28;20579;-55
2021/03/21 00:50:08;;;;;;;1.33;1.20;;;23.00;26.90;;;;;;5070683;28;20201;-49
2021/03/21 00:52:34;;;;;;;0.93;0.93;;;23.10;27.00;;;;;;5071135;28;20570;-54
2021/03/21 00:55:00;;;;;;;1.20;1.10;;;23.00;26.90;;;;;;5072333;28;20201;-49
2021/03/21 00:57:26;;;;;;;1.40;1.00;;;23.00;26.90;;;;;;5070850;28;20237;-56
2021/03/21 00:59:52;;;;;;;1.60;1.17;;;23.00;26.90;;;;;;5071320;28;20208;-46
2021/03/21 01:02:18;;;;;;;1.67;1.00;;;23.00;27.00;;;;;;5071376;28;20610;-51
2021/03/21 01:04:44;;;;;;;1.70;1.10;;;23.00;27.00;;;;;;5071750;28;20197;-52
2021/03/21 01:07:10;;;;;;;1.30;1.20;;;23.00;27.00;;;;;;5068963;28;20209;-50
2021/03/21 01:09:36;;;;;;;1.00;1.00;;;23.00;27.00;;;;;;5070303;28;20204;-48
2021/03/21 01:12:02;;;;;;;1.08;1.00;;;23.00;27.00;;;;;;5071040;28;20254;-52
2021/03/21 01:14:28;;;;;;;1.20;1.10;;;23.00;27.00;;;;;;5072212;28;20438;-50
2021/03/21 01:16:54;;;;;;;1.20;1.10;;;23.00;27.00;;;;;;5070199;28;20205;-54
2021/03/21 01:19:20;;;;;;;1.30;1.20;;;23.00;27.00;;;;;;5071617;28;20208;-51
2021/03/21 01:21:46;;;;;;;1.20;1.10;;;23.00;27.00;;;;;;5071120;28;20308;-52
2021/03/21 01:24:12;;;;;;;1.10;1.00;;;23.00;27.00;;;;;;5070845;28;20267;-52
2021/03/21 01:26:38;;;;;;;1.13;1.10;;;23.00;27.00;;;;;;5069941;28;20205;-54
2021/03/21 01:29:04;;;;;;;0.90;0.90;;;23.00;27.00;;;;;;5069379;28;20213;-53
2021/03/21 01:31:30;;;;;;;1.30;1.20;;;23.00;27.00;;;;;;5069741;28;20204;-47
2021/03/21 01:33:56;;;;;;;1.90;1.10;;;23.00;27.00;;;;;;5064244;28;20222;-49
2021/03/21 01:36:22;;;;;;;1.20;1.10;;;23.00;27.00;;;;;;5074990;28;20197;-54
2021/03/21 01:38:48;;;;;;;1.30;1.20;;;23.00;27.00;;;;;;5070736;28;20680;-54
2021/03/21 01:41:14;;;;;;;1.30;1.20;;;23.00;27.00;;;;;;5071052;28;20209;-53
2021/03/21 01:43:41;;;;;;;1.07;1.00;;;23.00;27.00;;;;;;5071623;28;20223;-55
2021/03/21 01:46:07;;;;;;;1.23;1.02;;;23.00;27.10;;;;;;5070648;28;20871;-47
2021/03/21 01:48:33;;;;;;;1.10;1.00;;;23.00;27.10;;;;;;5070192;28;20201;-55
2021/03/21 01:50:59;;;;;;;0.97;0.97;;;23.00;27.10;;;;;;5070994;28;20422;-56
2021/03/21 01:53:25;;;;;;;1.17;1.07;;;23.00;27.10;;;;;;5064254;28;20229;-50
2021/03/21 01:55:51;;;;;;;1.40;1.17;;;23.00;27.10;;;;;;5071306;28;20208;-48
2021/03/21 01:58:17;;;;;;;0.95;0.95;;;23.00;27.10;;;;;;5069922;28;20208;-54
2021/03/21 02:00:43;;;;;;;1.10;1.00;;;23.00;27.10;;;;;;5070603;28;20201;-55
2021/03/21 02:03:09;;;;;;;1.27;1.17;;;23.00;27.10;;;;;;5069980;28;20225;-56
2021/03/21 02:05:35;;;;;;;0.90;0.90;;;23.00;27.20;;;;;;5070869;28;20719;-49
2021/03/21 02:08:01;;;;;;;1.13;1.07;;;23.00;27.10;;;;;;5066280;28;20258;-53
2021/03/21 02:10:27;;;;;;;1.00;1.00;;;23.00;27.10;;;;;;5070284;28;20205;-50
2021/03/21 02:12:54;;;;;;;1.10;1.10;;;23.00;27.10;;;;;;5071651;28;20225;-55
2021/03/21 02:15:20;;;;;;;1.03;0.93;;;23.00;27.10;;;;;;5069328;28;20205;-51
2021/03/21 02:17:46;;;;;;;0.98;0.98;;;23.00;27.10;;;;;;5070149;28;20208;-51
2021/03/21 02:20:12;;;;;;;1.20;1.10;;;23.00;27.10;;;;;;5070518;28;20200;-50
2021/03/21 02:22:38;;;;;;;1.20;1.10;;;23.00;27.10;;;;;;5070946;28;20285;-49
2021/03/21 02:25:04;;;;;;;1.17;1.08;;;23.00;27.20;;;;;;5070922;28;20201;-53
2021/03/21 02:27:30;;;;;;;1.00;1.00;;;23.00;27.20;;;;;;5071563;28;20208;-48
2021/03/21 02:29:56;;;;;;;1.20;1.10;;;23.00;27.20;;;;;;5069856;28;20232;-53
2021/03/21 02:32:22;;;;;;;1.20;1.10;;;23.00;27.20;;;;;;5071837;28;20274;-53
2021/03/21 02:34:48;;;;;;;2.15;1.10;;;23.00;27.20;;;;;;5074751;28;20285;-50
2021/03/21 02:37:14;;;;;;;1.23;1.13;;;22.90;27.20;;;;;;5071829;28;20212;-54
2021/03/21 02:39:40;;;;;;;1.30;1.20;;;22.90;27.20;;;;;;5074479;28;20204;-53
2021/03/21 02:42:06;;;;;;;1.10;1.00;;;23.00;27.20;;;;;;5074540;28;20618;-55
2021/03/21 02:44:32;;;;;;;1.48;1.13;;;22.90;27.60;;;;;;5074084;28;20537;-61
2021/03/21 02:46:58;;;;;;;1.80;1.30;;;23.00;27.20;;;;;;5073491;28;20208;-55
2021/03/21 02:49:24;;;;;;;1.07;1.00;;;23.00;27.20;;;;;;5074271;28;20197;-47
2021/03/21 02:51:50;;;;;;;1.38;1.27;;;23.00;27.20;;;;;;5074405;28;20228;-45
2021/03/21 02:54:16;;;;;;;1.10;0.95;;;23.00;27.10;;;;;;5074111;28;20201;-48
2021/03/21 02:56:42;;;;;;;1.05;1.02;;;23.00;27.10;;;;;;5072540;28;20205;-45
2021/03/21 02:59:08;;;;;;;1.20;1.00;;;23.00;27.10;;;;;;5074729;28;20193;-47
2021/03/21 03:01:34;;;;;;;1.00;1.00;;;23.00;27.10;;;;;;5073592;28;20592;-45
2021/03/21 03:04:00;;;;;;;0.87;0.87;;;23.00;27.10;;;;;;5075249;28;20204;-44
2021/03/21 03:06:26;;;;;;;1.50;1.40;;;23.00;27.10;;;;;;5072892;28;20204;-47
2021/03/21 03:08:52;;;;;;;1.30;1.20;;;23.00;27.10;;;;;;5073658;28;20552;-43
2021/03/21 03:11:18;;;;;;;1.23;1.13;;;23.00;27.10;;;;;;5073777;28;20201;-47
2021/03/21 03:13:44;;;;;;;2.47;1.43;;;23.00;27.10;;;;;;5073507;28;20230;-46
2021/03/21 03:16:10;;;;;;;1.20;1.00;;;23.00;27.10;;;;;;5074487;28;20262;-45
2021/03/21 03:18:36;;;;;;;1.33;1.10;;;23.00;27.10;;;;;;5072497;28;20341;-46
2021/03/21 03:21:02;;;;;;;1.50;1.20;;;23.00;27.10;;;;;;5073127;28;20239;-47
2021/03/21 03:23:28;;;;;;;1.20;1.10;;;23.00;27.20;;;;;;5073632;28;20224;-46
2021/03/21 03:25:54;;;;;;;1.30;1.13;;;23.00;27.20;;;;;;5057596;28;20208;-57
2021/03/21 03:28:20;;;;;;;1.20;1.10;;;23.00;27.20;;;;;;5072287;28;20201;-54
2021/03/21 03:30:46;;;;;;;1.50;1.10;;;23.00;27.20;;;;;;5072399;28;20251;-50
2021/03/21 03:33:12;;;;;;;1.33;1.23;;;23.00;27.20;;;;;;5072626;28;20221;-53
2021/03/21 03:35:38;;;;;;;1.23;1.10;;;23.00;27.20;;;;;;5067962;28;20205;-52
2021/03/21 03:38:04;;;;;;;2.33;1.30;;;23.00;27.30;;;;;;5072344;28;20681;-51
2021/03/21 03:40:30;;;;;;;1.13;0.90;;;23.00;27.40;;;;;;5071449;28;20213;-56
2021/03/21 03:42:56;;;;;;;1.50;1.00;;;23.00;27.30;;;;;;5073840;28;20619;-54
2021/03/21 03:45:22;;;;;;;1.83;1.10;;;23.00;27.20;;;;;;5072121;28;20201;-52
2021/03/21 03:47:48;;;;;;;1.30;1.20;;;23.00;27.10;;;;;;5072154;28;20224;-56
2021/03/21 03:50:14;;;;;;;1.20;1.10;;;23.00;27.10;;;;;;5064570;28;20205;-49
2021/03/21 03:52:40;;;;;;;1.20;1.10;;;23.00;27.10;;;;;;5073841;28;20247;-51
2021/03/21 03:55:06;;;;;;;1.60;1.10;;;23.00;27.10;;;;;;5073322;28;20672;-51
2021/03/21 03:57:32;;;;;;;1.20;1.10;;;23.00;27.10;;;;;;5070619;28;20291;-51
2021/03/21 03:59:58;;;;;;;1.70;1.40;;;23.00;27.10;;;;;;5073509;28;20862;-51
2021/03/21 04:02:24;;;;;;;1.47;1.20;;;23.00;27.10;;;;;;5072575;28;20235;-52
2021/03/21 04:04:50;;;;;;;1.30;1.20;;;23.00;27.10;;;;;;5072203;28;20207;-51
2021/03/21 04:07:16;;;;;;;1.23;1.13;;;23.00;27.10;;;;;;5073263;28;20243;-51
2021/03/21 04:09:42;;;;;;;1.93;1.30;;;23.00;27.10;;;;;;5071848;28;20230;-49
2021/03/21 04:12:08;;;;;;;2.10;1.30;;;23.00;27.20;;;;;;5071514;28;20228;-48
2021/03/21 04:14:34;;;;;;;1.20;1.20;;;23.00;27.20;;;;;;5072277;28;20595;-48
2021/03/21 04:17:00;;;;;;;1.03;1.00;;;23.00;27.20;;;;;;5072871;28;20207;-51
2021/03/21 04:19:26;;;;;;;2.37;1.37;;;23.00;27.20;;;;;;5071972;28;20197;-45
2021/03/21 04:21:52;;;;;;;1.00;1.00;;;23.00;27.10;;;;;;5072123;28;20228;-48
2021/03/21 04:24:18;;;;;;;1.17;1.07;;;23.00;27.20;;;;;;5073927;28;20204;-50
2021/03/21 04:26:44;;;;;;;1.30;1.20;;;23.00;27.20;;;;;;5072026;28;20730;-47
2021/03/21 04:29:10;;;;;;;1.50;1.30;;;23.00;27.20;;;;;;5072392;28;20201;-47
2021/03/21 04:31:36;;;;;;;1.97;1.40;;;23.00;27.20;;;;;;5071860;28;20220;-46
2021/03/21 04:34:02;;;;;;;1.13;1.07;;;23.00;27.20;;;;;;5070730;28;20208;-47
2021/03/21 04:36:28;;;;;;;1.13;1.03;;;23.00;27.20;;;;;;5072306;28;20201;-50
2021/03/21 04:38:54;;;;;;;1.00;1.00;;;23.00;27.10;;;;;;5072493;28;20563;-46
2021/03/21 04:41:20;;;;;;;1.30;1.07;;;23.00;27.10;;;;;;5074456;28;20270;-47
2021/03/21 04:43:46;;;;;;;1.33;1.23;;;23.00;27.00;;;;;;5086631;28;20250;-45
2021/03/21 04:46:12;;;;;;;1.77;1.00;;;23.00;27.00;;;;;;5071637;28;20205;-50
2021/03/21 04:48:38;;;;;;;1.00;1.00;;;23.00;27.00;;;;;;5071890;28;20209;-48
2021/03/21 04:51:04;;;;;;;1.77;1.07;;;23.00;27.10;;;;;;5071711;28;20563;-49
2021/03/21 04:53:30;;;;;;;1.00;1.00;;;23.00;27.10;;;;;;5071793;28;20205;-49
2021/03/21 04:55:56;;;;;;;1.30;1.20;;;23.00;27.10;;;;;;5071751;28;20296;-52
2021/03/21 04:58:22;;;;;;;2.47;1.10;;;23.00;27.10;;;;;;5071102;28;20673;-48
2021/03/21 05:00:48;;;;;;;1.00;1.00;;;23.00;27.10;;;;;;5072218;28;20215;-45
2021/03/21 05:03:14;;;;;;;1.20;1.08;;;23.00;27.10;;;;;;5071752;28;20286;-45
2021/03/21 05:05:40;;;;;;;1.53;1.27;;;23.00;27.10;;;;;;5071735;28;20609;-45
2021/03/21 05:08:06;;;;;;;1.30;1.20;;;23.00;27.20;;;;;;5070676;28;20212;-46
2021/03/21 05:10:32;;;;;;;1.10;1.00;;;23.00;27.20;;;;;;5071479;28;20235;-46
2021/03/21 05:12:58;;;;;;;1.20;1.10;;;23.00;27.20;;;;;;5070012;28;20228;-46
2021/03/21 05:15:24;;;;;;;1.00;1.00;;;23.00;27.20;;;;;;5072883;28;20204;-45
2021/03/21 05:17:50;;;;;;;1.20;1.00;;;23.00;27.20;;;;;;5058380;28;20209;-50
2021/03/21 05:20:16;;;;;;;1.00;1.00;;;23.00;27.10;;;;;;5071250;28;20201;-45
2021/03/21 05:22:42;;;;;;;1.10;1.00;;;23.00;27.10;;;;;;5071280;28;20232;-46
2021/03/21 05:25:08;;;;;;;1.97;1.10;;;23.00;27.20;;;;;;5070191;28;20205;-46
2021/03/21 05:27:34;;;;;;;1.65;1.15;;;23.00;27.20;;;;;;5070993;28;20200;-45
2021/03/21 05:30:00;;;;;;;1.93;1.10;;;23.00;27.20;;;;;;5070623;28;20675;-44
2021/03/21 05:32:26;;;;;;;1.20;1.10;;;23.00;27.20;;;;;;5071109;28;20224;-45
2021/03/21 05:34:52;;;;;;;3.43;1.30;;;23.00;27.10;;;;;;5067867;28;20610;-50
2021/03/21 05:37:18;;;;;;;6.87;1.20;;;23.00;27.70;;;;;;5067822;28;20268;-48
2021/03/21 05:39:44;;;;;;;1.33;1.17;;;23.00;27.60;;;;;;5071315;28;20251;-44
2021/03/21 05:42:10;;;;;;;1.40;1.13;;;23.00;27.30;;;;;;5066894;22;20585;-47
2021/03/21 05:44:36;;;;;;;1.77;1.00;;;23.00;27.20;;;;;;5038661;28;20202;-48
2021/03/21 05:47:02;;;;;;;1.20;1.10;;;23.00;27.20;;;;;;5041561;28;20695;-48
2021/03/21 05:49:28;;;;;;;1.53;1.10;;;23.00;27.10;;;;;;5051856;28;20209;-46
2021/03/21 05:51:55;;;;;;;1.37;1.20;;;23.00;27.10;;;;;;5050447;28;20290;-46
2021/03/21 05:54:21;;;;;;;1.00;1.00;;;23.00;27.10;;;;;;5049986;28;20397;-46
2021/03/21 05:56:47;;;;;;;1.63;1.20;;;23.00;27.10;;;;;;5049557;28;20205;-46
2021/03/21 05:59:13;;;;;;;1.10;1.10;;;23.00;27.20;;;;;;5051342;28;20205;-46
2021/03/21 06:01:38;;;;;;;1.53;1.20;;;23.00;27.20;;;;;;5049797;28;20239;-48
2021/03/21 06:04:10;;;;;;;3.50;1.10;;;23.00;27.20;;;;;;5049913;28;20661;-46
2021/03/21 06:06:36;;;;;;;3.20;1.10;;;23.00;27.20;;;;;;5049680;28;20202;-47
2021/03/21 06:09:02;;;;;;;1.60;1.00;;;23.00;27.20;;;;;;5050085;28;20270;-46
2021/03/21 06:11:28;;;;;;;1.57;1.20;;;23.00;27.10;;;;;;5049605;28;20700;-51
2021/03/21 06:13:54;;;;;;;0.85;0.85;;;23.00;27.10;;;;;;5049764;28;20255;-53
2021/03/21 06:16:20;;;;;;;1.70;0.93;;;23.00;27.10;;;;;;5049896;28;20198;-50
2021/03/21 06:18:46;;;;;;;1.33;1.23;;;23.00;27.20;;;;;;5050351;28;20205;-50
2021/03/21 06:21:12;;;;;;;1.17;1.07;;;23.00;27.20;;;;;;5050741;28;20228;-49
2021/03/21 06:23:38;;;;;;;1.07;1.07;;;23.00;27.20;;;;;;5049698;28;20232;-46
2021/03/21 06:26:04;;;;;;;1.65;1.00;;;23.00;27.10;;;;;;5051093;28;20255;-46
2021/03/21 06:28:31;;;;;;;1.57;1.10;;;23.00;27.10;;;;;;5050658;28;20201;-49
2021/03/21 06:30:57;;;;;;;2.00;1.08;;;23.00;27.10;;;;;;5050156;28;20671;-46
2021/03/21 06:33:23;;;;;;;1.30;1.20;;;23.00;27.10;;;;;;5050887;28;20201;-47
2021/03/21 06:35:49;;;;;;;1.77;1.17;;;23.00;27.10;;;;;;5047696;28;20244;-54
2021/03/21 06:38:15;;;;;;;2.10;1.10;;;23.00;27.10;;;;;;5050202;28;20255;-49
2021/03/21 06:40:41;;;;;;;1.30;1.20;;;23.00;27.10;;;;;;5050006;28;20262;-50
2021/03/21 06:43:07;;;;;;;1.03;1.00;;;23.00;27.10;;;;;;5049395;28;20230;-49
2021/03/21 06:45:33;;;;;;;1.25;1.15;;;23.00;27.10;;;;;;5049964;28;20228;-50
2021/03/21 06:47:59;;;;;;;1.40;1.00;;;23.00;27.10;;;;;;5049843;28;20692;-47
2021/03/21 06:50:25;;;;;;;2.17;1.10;;;23.00;27.10;;;;;;5049829;28;20238;-46
2021/03/21 06:52:51;;;;;;;1.07;1.07;;;23.00;27.10;;;;;;5038572;28;20295;-46
2021/03/21 06:55:17;;;;;;;1.97;1.20;;;23.00;27.60;;;;;;5041914;28;20205;-49
2021/03/21 06:57:43;;;;;;;1.27;1.00;;;23.00;27.10;;;;;;5050244;28;20220;-51
2021/03/21 07:00:09;;;;;;;1.20;1.10;;;23.00;27.10;;;;;;5046363;28;20206;-48
2021/03/21 07:02:35;;;;;;;1.47;1.20;;;23.00;27.10;;;;;;5039344;28;20589;-45
2021/03/21 07:05:01;;;;;;;1.73;1.10;;;23.00;27.10;;;;;;5048311;28;20204;-48
2021/03/21 07:07:27;;;;;;;1.30;1.20;;;23.00;27.10;;;;;;5049148;28;20560;-46
2021/03/21 07:09:53;;;;;;;1.77;1.10;;;23.00;27.10;;;;;;5050304;28;20206;-48
2021/03/21 07:12:19;;;;;;;1.07;0.90;;;23.00;27.10;;;;;;5048277;28;20588;-48
2021/03/21 07:14:45;;;;;;;1.35;1.00;;;23.00;27.10;;;;;;5050127;28;20208;-48
2021/03/21 07:17:11;;;;;;;2.08;1.45;;;23.00;27.10;;;;;;5053625;28;20209;-49
2021/03/21 07:19:37;;;;;;;1.10;1.00;;;23.00;27.00;;;;;;5053413;28;20651;-46
2021/03/21 07:22:03;;;;;;;1.97;1.30;;;23.10;27.10;;;;;;5053531;28;20225;-48
2021/03/21 07:24:29;;;;;;;2.97;1.27;;;23.00;27.00;;;;;;5053560;28;20198;-47
2021/03/21 07:26:55;;;;;;;1.27;1.17;;;23.00;27.00;;;;;;5052972;28;20212;-55
2021/03/21 07:29:21;;;;;;;1.40;1.13;;;23.10;27.10;;;;;;5052965;28;20228;-47
2021/03/21 07:31:47;;;;;;;1.17;1.07;;;23.00;27.00;;;;;;5053419;28;20230;-49
2021/03/21 07:34:13;;;;;;;1.27;1.17;;;23.10;27.10;;;;;;5053094;28;20581;-50
2021/03/21 07:36:39;;;;;;;3.20;1.20;;;23.00;27.10;;;;;;5047270;28;20571;-47
2021/03/21 07:39:05;;;;;;;1.00;1.00;;;23.00;27.00;;;;;;5051566;28;20194;-49
2021/03/21 07:41:31;;;;;;;1.30;1.20;;;23.00;27.10;;;;;;5052998;28;20729;-50
2021/03/21 07:43:57;;;;;;;0.90;0.90;;;23.00;27.00;;;;;;5052747;28;20194;-47
2021/03/21 07:46:23;;;;;;;1.00;1.00;;;23.00;27.10;;;;;;5053013;28;20610;-48
2021/03/21 07:48:49;;;;;;;2.40;1.00;;;23.00;27.00;;;;;;5053991;28;20204;-46
2021/03/21 07:51:15;;;;;;;1.30;1.20;;;23.00;27.10;;;;;;5052086;28;20704;-50
2021/03/21 07:53:41;;;;;;;1.23;1.00;;;23.00;27.00;;;;;;5053847;28;20210;-48
2021/03/21 07:56:07;;;;;;;1.10;1.00;;;23.00;27.00;;;;;;5051835;28;20267;-48
2021/03/21 07:58:33;;;;;;;1.07;0.97;;;23.00;27.00;;;;;;5053184;28;20530;-48
2021/03/21 08:00:59;;;;;;;1.50;1.20;;;23.10;27.10;;;;;;5052261;28;20222;-49
2021/03/21 08:03:25;;;;;;;0.90;0.90;;;23.00;27.00;;;;;;5053437;28;20229;-47
2021/03/21 08:05:51;;;;;;;1.20;1.10;;;23.00;27.10;;;;;;5048473;28;20617;-46
2021/03/21 08:08:17;;;;;;;1.50;1.33;;;23.10;27.10;;;;;;5049991;28;20210;-52
2021/03/21 08:10:43;;;;;;;1.20;1.10;;;23.10;27.20;;;;;;5051743;28;20271;-46
2021/03/21 08:13:09;;;;;;;1.13;1.03;;;23.10;27.20;;;;;;5052716;28;20565;-47
2021/03/21 08:15:35;;;;;;;1.07;1.00;;;23.10;27.10;;;;;;5050124;28;20212;-47
2021/03/21 08:18:01;;;;;;;2.22;1.10;;;23.10;27.10;;;;;;5051412;28;20206;-53
2021/03/21 08:20:27;;;;;;;1.23;1.13;;;23.10;27.10;;;;;;5053742;28;20440;-46
2021/03/21 08:22:53;;;;;;;4.30;1.40;;;23.10;27.10;;;;;;5051377;28;20234;-48
2021/03/21 08:25:19;;;;;;;1.20;1.10;;;23.10;27.10;;;;;;5053681;28;20213;-46
2021/03/21 08:27:45;;;;;;;2.03;1.10;;;23.10;27.10;;;;;;5051967;28;20202;-47
2021/03/21 08:30:11;;;;;;;1.65;1.20;;;23.10;27.10;;;;;;5052246;28;20213;-47
2021/03/21 08:32:37;;;;;;;1.55;1.00;;;23.10;27.10;;;;;;5053276;28;20279;-45
2021/03/21 08:35:03;;;;;;;1.38;1.27;;;23.10;27.10;;;;;;5051824;28;20201;-46
2021/03/21 08:37:29;;;;;;;1.03;0.90;;;23.10;27.10;;;;;;5048387;28;20209;-49
2021/03/21 08:39:55;;;;;;;1.15;1.10;;;23.10;27.20;;;;;;5050324;28;20564;-51
2021/03/21 08:42:21;;;;;;;1.50;1.40;;;23.10;27.20;;;;;;5051074;28;20272;-47
2021/03/21 08:44:48;;;;;;;2.90;1.27;;;23.10;27.20;;;;;;5051755;28;20259;-48
2021/03/21 08:47:14;;;;;;;5.07;1.57;;;23.00;28.00;;;;;;5041699;28;20203;-52
2021/03/21 08:49:40;;;;;;;2.70;1.10;;;23.10;28.10;;;;;;5049867;28;20240;-54
2021/03/21 08:52:06;;;;;;;1.83;1.00;;;23.10;27.80;;;;;;5050021;28;20591;-54
2021/03/21 08:54:32;;;;;;;1.40;1.10;;;23.10;27.80;;;;;;5051066;28;20205;-56
2021/03/21 08:56:58;;;;;;;2.20;1.10;;;23.20;27.60;;;;;;5052348;28;20591;-56
2021/03/21 08:59:24;;;;;;;1.20;1.10;;;23.20;27.40;;;;;;5052748;28;20202;-57
2021/03/21 09:01:50;;;;;;;1.03;1.00;;;23.20;27.30;;;;;;5045743;28;20292;-45
2021/03/21 09:04:16;;;;;;;2.10;1.10;;;23.20;27.30;;;;;;5047789;28;20202;-52
2021/03/21 09:06:42;;;;;;;3.72;1.20;;;23.30;27.30;;;;;;5051533;28;20212;-57
2021/03/21 09:09:08;;;;;;;1.80;1.30;;;23.30;27.40;;;;;;5052291;28;20206;-57
2021/03/21 09:11:34;;;;;;;1.83;1.30;;;23.30;27.90;;;;;;5051428;28;20276;-58
2021/03/21 09:14:00;;;;;;;2.40;1.10;;;23.20;27.60;;;;;;5050228;28;20211;-59
2021/03/21 09:16:26;;;;;;;1.63;1.20;;;23.20;27.50;;;;;;5048629;28;20214;-58
2021/03/21 09:18:52;;;;;;;2.50;1.20;;;23.20;27.40;;;;;;5051829;28;20272;-52
2021/03/21 09:21:18;;;;;;;3.60;1.30;;;23.20;27.70;;;;;;5041383;28;20279;-57
2021/03/21 09:23:44;;;;;;;3.22;1.48;;;23.30;28.20;;;;;;5038018;28;20234;-53
2021/03/21 09:26:10;;;;;;;4.53;1.55;;;23.30;28.50;;;;;;5051776;28;20193;-59
2021/03/21 09:28:36;;;;;;;2.38;1.30;;;23.20;30.30;;;;;;5051120;28;20685;-50
2021/03/21 09:31:02;;;;;;;3.88;1.63;;;23.20;31.40;;;;;;5051877;28;20221;-53
2021/03/21 09:33:28;;;;;;;2.07;1.40;;;23.10;31.90;;;;;;5048452;28;20683;-56
2021/03/21 09:35:54;;;;;;;3.83;1.63;;;23.10;32.30;;;;;;5047020;28;20206;-52
2021/03/21 09:38:20;;;;;;;4.43;1.67;;;23.10;32.40;;;;;;5048358;28;20209;-57
2021/03/21 09:40:46;;;;;;;3.90;2.73;;;23.10;32.40;;;;;;5050584;28;20225;-48
2021/03/21 09:43:12;;;;;;;3.93;2.93;;;19.80;21.80;;;;;;5049769;28;20267;-48
2021/03/21 09:45:38;;;;;;;4.73;2.77;;;17.00;17.40;;;;;;5048424;28;20200;-51
2021/03/21 09:48:04;;;;;;;1.90;1.80;;;17.40;23.60;;;;;;5048035;28;20252;-47
2021/03/21 09:50:29;;;;;;;2.70;1.90;;;19.30;26.30;;;;;;5049733;28;20224;-51
2021/03/21 09:52:55;;;;;;;2.80;1.80;;;20.50;26.70;;;;;;5051468;28;20206;-50
2021/03/21 09:55:22;;;;;;;2.93;1.87;;;21.20;26.30;;;;;;5048942;28;20211;-53
2021/03/21 09:57:48;;;;;;;3.30;1.97;;;21.60;26.00;;;;;;5051335;28;20205;-53
2021/03/21 10:00:14;;;;;;;2.17;1.70;;;21.90;26.10;;;;;;5049879;28;20689;-48
2021/03/21 10:02:40;;;;;;;2.60;1.80;;;22.20;26.20;;;;;;5051037;28;20234;-48
2021/03/21 10:05:06;;;;;;;2.73;1.60;;;22.30;26.30;;;;;;5050059;28;20198;-50
2021/03/21 10:07:32;;;;;;;1.77;1.43;;;22.40;26.30;;;;;;5037193;28;20203;-54
2021/03/21 10:09:57;;;;;;;2.67;2.03;;;22.50;26.40;;;;;;5036482;28;20227;-53
2021/03/21 10:12:23;;;;;;;3.30;1.73;;;22.60;26.60;;;;;;5049889;28;20551;-53
2021/03/21 10:14:49;;;;;;;2.73;1.60;;;22.60;27.50;;;;;;5048754;28;20261;-50
2021/03/21 10:17:16;;;;;;;2.00;1.40;;;22.70;27.40;;;;;;5049599;28;20252;-54
2021/03/21 10:19:42;;;;;;;2.87;1.50;;;22.70;27.00;;;;;;5049278;28;20212;-52
2021/03/21 10:22:07;;;;;;;2.27;1.60;;;22.80;27.30;;;;;;5049703;28;20266;-59
2021/03/21 10:24:33;;;;;;;2.53;1.60;;;22.80;27.90;;;;;;5048088;28;20200;-54
2021/03/21 10:26:59;;;;;;;1.70;1.60;;;22.80;28.50;;;;;;5048881;28;20208;-60
2021/03/21 10:29:25;;;;;;;2.97;1.60;;;22.80;27.90;;;;;;5049346;28;20246;-50
2021/03/21 10:31:51;;;;;;;1.50;1.40;;;22.80;27.80;;;;;;5049725;28;20209;-51
2021/03/21 10:34:17;;;;;;;1.87;1.50;;;22.80;27.70;;;;;;5050117;28;20200;-53
2021/03/21 10:36:43;;;;;;;1.30;1.20;;;22.90;28.00;;;;;;5049606;28;20212;-52
2021/03/21 10:39:09;;;;;;;1.63;1.53;;;22.80;28.10;;;;;;5046384;28;20204;-49
2021/03/21 10:41:35;;;;;;;3.00;1.60;;;22.90;28.90;;;;;;5045167;28;20821;-56
2021/03/21 10:44:01;;;;;;;2.47;1.50;;;23.00;28.60;;;;;;5048961;28;20208;-59
2021/03/21 10:46:27;;;;;;;1.73;1.40;;;23.00;28.10;;;;;;5048235;28;21476;-56
2021/03/21 10:48:53;;;;;;;3.00;1.50;;;22.90;28.20;;;;;;5051303;28;20218;-56
2021/03/21 10:51:19;;;;;;;10.00;3.33;;;22.80;27.90;;;;;;5052383;28;20232;-54
2021/03/21 10:53:45;;;;;;;15.03;3.93;;;22.60;25.60;;;;;;5053648;28;20208;-49
2021/03/21 10:56:13;;;;;;;9.57;2.60;;;22.40;23.20;;;;;;5053659;28;20209;-47
2021/03/21 10:58:39;;;;;;;9.10;2.70;;;22.20;23.30;;;;;;5047164;28;20252;-50
2021/03/21 11:01:05;;;;;;;8.37;2.40;;;22.30;23.70;;;;;;5054456;28;20229;-54
2021/03/21 11:03:32;;;;;;;6.40;2.43;;;22.40;26.90;;;;;;5053279;28;20227;-56
2021/03/21 11:05:57;;;;;;;4.67;1.83;;;22.50;27.30;;;;;;5049459;28;20194;-52
2021/03/21 11:08:23;;;;;;;3.53;2.20;;;22.50;26.90;;;;;;5052862;28;20201;-52
2021/03/21 11:10:49;;;;;;;3.83;2.00;;;22.60;26.90;;;;;;5053768;28;20225;-52
2021/03/21 11:13:15;;;;;;;4.47;1.70;;;22.70;26.70;;;;;;5052607;28;20209;-57
2021/03/21 11:15:44;;;;;;;6.23;1.90;;;22.80;26.40;;;;;;5050428;28;20211;-62
2021/03/21 11:18:10;;;;;;;6.03;2.23;;;22.90;26.70;;;;;;5048216;28;20202;-48
2021/03/21 11:20:36;;;;;;;4.33;2.07;;;23.00;26.50;;;;;;5048158;28;20279;-51
2021/03/21 11:23:02;;;;;;;4.90;1.87;;;23.00;26.40;;;;;;5049436;28;20276;-49
2021/03/21 11:25:28;;;;;;;4.30;1.90;;;23.00;26.30;;;;;;5051721;28;20419;-53
2021/03/21 11:27:54;;;;;;;3.63;1.80;;;23.00;26.50;;;;;;5050888;28;20220;-55
2021/03/21 11:30:20;;;;;;;4.73;2.27;;;23.00;26.60;;;;;;5054457;28;20228;-53
2021/03/21 11:32:46;;;;;;;5.93;2.03;;;23.00;26.70;;;;;;5052051;28;20209;-51
2021/03/21 11:35:12;;;;;;;4.00;2.10;;;23.00;26.50;;;;;;5051320;28;20607;-52
2021/03/21 11:37:38;;;;;;;4.27;1.50;;;23.00;26.70;;;;;;5051108;28;20279;-53
2021/03/21 11:40:04;;;;;;;2.93;1.50;;;23.00;26.80;;;;;;5050852;28;20229;-48
2021/03/21 11:42:30;;;;;;;4.90;1.63;;;23.00;26.80;;;;;;5071709;22;20591;-42
2021/03/21 11:44:56;;;;;;;4.00;1.98;;;23.00;27.10;;;;;;5072865;28;20201;-45
2021/03/21 11:47:22;;;;;;;4.50;1.67;;;23.00;27.00;;;;;;5069612;28;20554;-49
2021/03/21 11:49:48;;;;;;;5.50;1.83;;;23.00;27.10;;;;;;5065894;28;20229;-52
2021/03/21 11:52:14;;;;;;;4.03;1.87;;;23.00;27.00;;;;;;5073784;28;20261;-54
2021/03/21 11:54:40;;;;;;;3.50;2.23;;;23.00;27.00;;;;;;5072440;28;20917;-51
2021/03/21 11:57:06;;;;;;;2.93;1.63;;;23.00;27.50;;;;;;5071249;28;20254;-47
2021/03/21 11:59:32;;;;;;;3.13;1.67;;;23.00;27.40;;;;;;5072665;28;20221;-52
2021/03/21 12:01:58;;;;;;;3.23;1.93;;;23.00;27.20;;;;;;5071897;28;20201;-49
2021/03/21 12:04:24;;;;;;;4.73;1.70;;;23.00;27.40;;;;;;5073121;28;20197;-53
2021/03/21 12:06:50;;;;;;;1.97;1.70;;;23.00;27.40;;;;;;5070888;28;20208;-46
2021/03/21 12:09:16;;;;;;;2.23;1.50;;;23.00;27.40;;;;;;5072788;28;20204;-43
2021/03/21 12:11:42;;;;;;;2.80;1.63;;;23.00;27.10;;;;;;5069987;28;20201;-50
2021/03/21 12:14:08;;;;;;;4.57;1.47;;;23.10;27.30;;;;;;5071803;28;20200;-51
2021/03/21 12:16:34;;;;;;;4.37;1.50;;;23.10;27.20;;;;;;5069293;28;20198;-52
2021/03/21 12:19:00;;;;;;;4.78;1.75;;;23.00;27.20;;;;;;5072739;28;20204;-53
2021/03/21 12:21:26;;;;;;;1.60;1.50;;;23.00;27.00;;;;;;5070618;28;20208;-50
2021/03/21 12:23:52;;;;;;;3.60;1.53;;;23.00;27.20;;;;;;5073037;28;20236;-49
2021/03/21 12:26:18;;;;;;;4.03;1.67;;;23.00;27.20;;;;;;5071564;28;20205;-51
2021/03/21 12:28:44;;;;;;;2.53;1.43;;;23.00;27.00;;;;;;5072246;28;20247;-43
2021/03/21 12:31:10;;;;;;;2.47;1.67;;;23.00;27.00;;;;;;5071585;28;20225;-52
2021/03/21 12:33:36;;;;;;;2.00;1.20;;;23.00;27.10;;;;;;5052646;28;20454;-48
2021/03/21 12:36:02;;;;;;;2.60;1.50;;;23.00;27.30;;;;;;5072627;28;20204;-52
2021/03/21 12:38:29;;;;;;;6.57;1.50;;;23.00;27.00;;;;;;5071167;28;20196;-53
2021/03/21 12:40:55;;;;;;;1.70;1.47;;;23.10;27.30;;;;;;5069706;28;20232;-54